Bonner, Montana
Current Conditions -  °F | °C
As of 8:09 AM on Saturday 25 Oct 2014 (Local Time) from KMSO Reporting Station
Scattered Clouds Scattered Clouds  
Wind Chill: 40°   Ceiling: Unl
Heat Index: 40°   Visibility: 10mi
Dew Point: 40°   Wind: 3mph
Humidity: 100%   Direction: 180°S
Pressure: 29.93"   Gusts: NA
Location:  46.87°N, 113.86°W
Report Text: KMSO 251409Z 18003KT 10SM SCT020 04/04 A2993 RMK AO2 T00440044
Loading
Personal Weather Stations






























Interactive Weather Map
Tropical Storm Tracking
New forecast layout! Learn more

10-Day Weather Forecast

Advertisements
Track Severe Weather on mobile